createdAt,value
2022-09-03T00:02:28.446Z,101223.22
2022-09-03T00:05:05.608Z,101225.06
2022-09-03T00:07:44.718Z,101218.31
2022-09-03T00:10:22.672Z,101214.56
2022-09-03T00:12:52.310Z,101213.44
2022-09-03T00:15:22.240Z,101214.53
2022-09-03T00:18:01.427Z,101209.66
2022-09-03T00:20:37.640Z,101214.91
2022-09-03T00:23:07.549Z,101216.00
2022-09-03T00:25:43.073Z,101213.00
2022-09-03T00:28:42.207Z,101212.66
2022-09-03T00:31:18.649Z,101209.63
2022-09-03T00:33:49.751Z,101212.53
2022-09-03T00:36:25.247Z,101204.72
2022-09-03T00:38:52.290Z,101207.34
2022-09-03T00:41:31.604Z,101202.81
2022-09-03T00:44:06.099Z,101197.22
2022-09-03T00:46:52.481Z,101202.09
2022-09-03T00:49:22.052Z,101203.16
2022-09-03T00:52:23.386Z,101206.94
2022-09-03T00:55:16.834Z,101202.78
2022-09-03T00:58:29.854Z,101200.91
2022-09-03T01:00:56.909Z,101199.38
2022-09-03T01:03:41.440Z,101204.25
2022-09-03T01:06:20.322Z,101204.63
2022-09-03T01:09:10.381Z,101209.06
2022-09-03T01:11:47.327Z,101204.19
2022-09-03T01:14:47.988Z,101205.69
2022-09-03T01:17:26.387Z,101202.75
2022-09-03T01:19:55.943Z,101197.44
2022-09-03T01:22:35.684Z,101206.75
2022-09-03T01:25:14.094Z,101209.41
2022-09-03T01:28:06.847Z,101207.16
2022-09-03T01:30:40.215Z,101215.41
2022-09-03T01:33:45.687Z,101210.53
2022-09-03T01:36:24.327Z,101206.06
2022-09-03T01:38:56.400Z,101217.34
2022-09-03T01:42:04.023Z,101207.94
2022-09-03T01:44:48.603Z,101217.28
2022-09-03T01:47:37.009Z,101210.88
2022-09-03T01:50:17.694Z,101209.00
2022-09-03T01:53:02.575Z,101219.91
2022-09-03T01:55:41.333Z,101218.38
2022-09-03T01:58:24.291Z,101218.03
2022-09-03T02:00:59.232Z,101216.59
2022-09-03T02:03:36.088Z,101211.19
2022-09-03T02:06:09.352Z,101210.84
2022-09-03T02:08:36.087Z,101196.63
2022-09-03T02:11:08.727Z,101200.06
2022-09-03T02:13:41.624Z,101205.69
2022-09-03T02:16:14.405Z,101203.44
2022-09-03T02:18:46.172Z,101201.94
2022-09-03T02:21:18.006Z,101210.94
2022-09-03T02:23:44.587Z,101208.28
2022-09-03T02:26:12.953Z,101210.16
2022-09-03T02:28:39.575Z,101204.88
2022-09-03T02:31:06.239Z,101208.63
2022-09-03T02:33:38.177Z,101207.47
2022-09-03T02:36:11.537Z,101205.25
2022-09-03T02:38:38.417Z,101201.88
2022-09-03T02:41:05.133Z,101200.75
2022-09-03T02:43:54.838Z,101200.00
2022-09-03T02:46:27.167Z,101201.88
2022-09-03T02:48:54.947Z,101213.13
2022-09-03T02:51:21.925Z,101201.44
2022-09-03T02:53:48.485Z,101204.44
2022-09-03T02:56:17.793Z,101202.56
2022-09-03T02:58:44.500Z,101197.69
2022-09-03T03:01:11.788Z,101190.19
2022-09-03T03:03:46.595Z,101191.59
2022-09-03T03:06:14.265Z,101195.41
2022-09-03T03:08:40.936Z,101193.53
2022-09-03T03:11:07.639Z,101189.34
2022-09-03T03:13:34.434Z,101186.69
2022-09-03T03:16:04.181Z,101195.69
2022-09-03T03:18:30.803Z,101181.00
2022-09-03T03:20:57.638Z,101183.31
2022-09-03T03:23:24.284Z,101185.16
2022-09-03T03:25:50.848Z,101184.75
2022-09-03T03:28:20.325Z,101190.78
2022-09-03T03:30:48.697Z,101186.34
2022-09-03T03:33:15.482Z,101185.94
2022-09-03T03:35:42.810Z,101177.31
2022-09-03T03:38:09.878Z,101185.53
2022-09-03T03:40:38.634Z,101189.72
2022-09-03T03:43:05.185Z,101181.41
2022-09-03T03:45:32.120Z,101187.50
2022-09-03T03:47:59.479Z,101188.19
2022-09-03T03:50:26.381Z,101184.66
2022-09-03T03:52:52.924Z,101187.03
2022-09-03T03:55:19.444Z,101186.22
2022-09-03T03:57:46.893Z,101189.22
2022-09-03T04:00:14.665Z,101193.78
2022-09-03T04:02:41.451Z,101187.38
2022-09-03T04:05:08.513Z,101191.53
2022-09-03T04:07:35.216Z,101180.53
2022-09-03T04:10:01.788Z,101186.91
2022-09-03T04:12:28.307Z,101183.78
2022-09-03T04:14:54.828Z,101187.59
2022-09-03T04:17:25.103Z,101183.09
2022-09-03T04:19:52.156Z,101188.69
2022-09-03T04:22:19.712Z,101194.22
2022-09-03T04:24:46.244Z,101190.88
2022-09-03T04:27:12.867Z,101189.72
2022-09-03T04:29:39.608Z,101179.28
2022-09-03T04:32:24.766Z,101185.22
2022-09-03T04:34:51.364Z,101177.44
2022-09-03T04:37:19.917Z,101178.94
2022-09-03T04:39:46.644Z,101178.56
2022-09-03T04:42:13.614Z,101178.44
2022-09-03T04:44:41.284Z,101183.78
2022-09-03T04:47:08.088Z,101175.53
2022-09-03T04:49:34.889Z,101175.53
2022-09-03T04:52:02.367Z,101182.25
2022-09-03T04:54:29.624Z,101185.22
2022-09-03T04:56:56.884Z,101192.00
2022-09-03T04:59:23.410Z,101191.59
2022-09-03T05:01:49.994Z,101188.63
2022-09-03T05:04:16.605Z,101186.31
2022-09-03T05:06:43.609Z,101188.22
2022-09-03T05:09:10.130Z,101189.69
2022-09-03T05:11:37.110Z,101191.94
2022-09-03T05:14:03.746Z,101189.38
2022-09-03T05:16:30.958Z,101196.13
2022-09-03T05:18:59.947Z,101191.94
2022-09-03T05:21:27.093Z,101184.00
2022-09-03T05:23:53.598Z,101191.91
2022-09-03T05:26:23.466Z,101187.09
2022-09-03T05:28:55.123Z,101191.91
2022-09-03T05:31:22.950Z,101189.63
2022-09-03T05:33:58.586Z,101187.34
2022-09-03T05:36:28.022Z,101182.94
2022-09-03T05:38:59.327Z,101187.41
2022-09-03T05:41:27.158Z,101189.72
2022-09-03T05:44:01.319Z,101192.75
2022-09-03T05:46:32.170Z,101186.34
2022-09-03T05:49:04.241Z,101194.28
2022-09-03T05:51:31.710Z,101194.31
2022-09-03T05:53:58.816Z,101188.69
2022-09-03T05:56:27.979Z,101186.50
2022-09-03T05:58:57.833Z,101187.25
2022-09-03T06:01:29.857Z,101192.59
2022-09-03T06:03:58.690Z,101187.34
2022-09-03T06:06:27.159Z,101186.94
2022-09-03T06:08:58.363Z,101188.09
2022-09-03T06:11:29.655Z,101183.59
2022-09-03T06:14:05.913Z,101193.41
2022-09-03T06:16:34.180Z,101188.53
2022-09-03T06:19:00.987Z,101187.41
2022-09-03T06:21:28.122Z,101191.56
2022-09-03T06:24:00.257Z,101187.81
2022-09-03T06:26:30.942Z,101188.59
2022-09-03T06:28:58.001Z,101183.34
2022-09-03T06:31:25.062Z,101186.72
2022-09-03T06:33:53.087Z,101188.63
2022-09-03T06:36:20.402Z,101189.00
2022-09-03T06:38:47.716Z,101182.28
2022-09-03T06:41:26.229Z,101189.41
2022-09-03T06:44:03.339Z,101196.94
2022-09-03T06:46:33.197Z,101185.69
2022-09-03T06:49:00.649Z,101193.56
2022-09-03T06:51:29.215Z,101203.00
2022-09-03T06:54:04.431Z,101195.50
2022-09-03T06:56:37.292Z,101193.63
2022-09-03T06:59:14.405Z,101195.13
2022-09-03T07:01:44.277Z,101205.38
2022-09-03T07:04:13.000Z,101192.59
2022-09-03T07:06:42.644Z,101197.53
2022-09-03T07:09:11.151Z,101198.63
2022-09-03T07:11:40.613Z,101185.13
2022-09-03T07:14:13.961Z,101197.13
2022-09-03T07:16:42.024Z,101188.91
2022-09-03T07:19:18.599Z,101181.00
2022-09-03T07:21:49.982Z,101187.41
2022-09-03T07:24:23.990Z,101190.44
2022-09-03T07:26:57.302Z,101185.53
2022-09-03T07:29:26.746Z,101192.34
2022-09-03T07:31:55.293Z,101188.19
2022-09-03T07:34:26.768Z,101196.09
2022-09-03T07:36:54.341Z,101193.88
2022-09-03T07:39:21.245Z,101186.34
2022-09-03T07:41:48.276Z,101192.00
2022-09-03T07:44:19.744Z,101196.91
2022-09-03T07:46:48.062Z,101192.00
2022-09-03T07:49:15.164Z,101189.41
2022-09-03T07:51:41.891Z,101194.66
2022-09-03T07:54:11.204Z,101197.69
2022-09-03T07:56:40.616Z,101190.16
2022-09-03T07:59:08.028Z,101189.78
2022-09-03T08:01:35.897Z,101200.66
2022-09-03T08:04:04.299Z,101200.25
2022-09-03T08:06:32.736Z,101204.44
2022-09-03T08:09:05.038Z,101204.03
2022-09-03T08:11:36.478Z,101202.50
2022-09-03T08:14:08.468Z,101205.91
2022-09-03T08:16:43.681Z,101202.78
2022-09-03T08:19:12.082Z,101214.34
2022-09-03T08:21:41.860Z,101210.69
2022-09-03T08:24:08.816Z,101212.66
2022-09-03T08:26:44.269Z,101212.59
2022-09-03T08:29:15.871Z,101217.75
2022-09-03T08:31:43.175Z,101213.66
2022-09-03T08:34:11.883Z,101218.38
2022-09-03T08:36:39.405Z,101211.53
2022-09-03T08:39:11.147Z,101206.03
2022-09-03T08:41:53.095Z,101209.59
2022-09-03T08:44:40.892Z,101214.34
2022-09-03T08:47:17.109Z,101211.72
2022-09-03T08:50:09.186Z,101214.22
2022-09-03T08:52:50.401Z,101210.91
2022-09-03T08:55:25.709Z,101210.81
2022-09-03T08:58:15.543Z,101214.94
2022-09-03T09:00:48.420Z,101208.25
2022-09-03T09:03:31.182Z,101222.28
2022-09-03T09:06:25.945Z,101214.00
2022-09-03T09:08:58.573Z,101212.41
2022-09-03T09:11:41.623Z,101205.75
2022-09-03T09:14:41.806Z,101205.00
2022-09-03T09:17:32.614Z,101217.84
2022-09-03T09:20:16.614Z,101206.59
2022-09-03T09:22:55.841Z,101205.38
2022-09-03T09:25:26.316Z,101208.41
2022-09-03T09:27:59.615Z,101211.50
2022-09-03T09:30:27.995Z,101207.66
2022-09-03T09:32:56.839Z,101202.25
2022-09-03T09:35:24.544Z,101211.41
2022-09-03T09:45:19.308Z,101194.75
2022-09-03T09:48:14.305Z,101197.41
2022-09-03T09:50:42.388Z,101200.81
2022-09-03T09:53:17.975Z,101204.66
2022-09-03T09:56:04.972Z,101212.53
2022-09-03T09:58:33.418Z,101204.69
2022-09-03T10:01:13.518Z,101201.88
2022-09-03T10:03:57.399Z,101203.41
2022-09-03T10:06:48.516Z,101199.13
2022-09-03T10:09:17.538Z,101197.50
2022-09-03T10:11:50.972Z,101183.38
2022-09-03T10:14:32.721Z,101192.59
2022-09-03T10:17:24.975Z,101195.19
2022-09-03T10:20:30.385Z,101199.19
2022-09-03T10:23:05.476Z,101190.53
2022-09-03T10:26:07.695Z,101192.47
2022-09-03T10:28:41.584Z,101193.84
2022-09-03T10:31:27.061Z,101182.03
2022-09-03T10:34:02.933Z,101182.25
2022-09-03T10:36:39.964Z,101181.72
2022-09-03T10:39:26.062Z,101189.69
2022-09-03T10:42:20.224Z,101188.97
2022-09-03T10:44:55.821Z,101187.31
2022-09-03T10:47:47.622Z,101184.94
2022-09-03T10:50:25.728Z,101179.41
2022-09-03T10:52:58.264Z,101185.94
2022-09-03T10:55:41.935Z,101178.81
2022-09-03T10:58:29.929Z,101200.41
2022-09-03T11:01:41.499Z,101197.25
2022-09-03T11:04:15.228Z,101194.16
2022-09-03T11:07:00.042Z,101187.94
2022-09-03T11:09:35.790Z,101186.63
2022-09-03T11:12:25.525Z,101182.06
2022-09-03T11:15:00.990Z,101190.81
2022-09-03T11:17:32.361Z,101191.38
2022-09-03T11:20:14.816Z,101186.16
2022-09-03T11:22:43.856Z,101177.97
2022-09-03T11:25:12.951Z,101179.94
2022-09-03T11:27:42.301Z,101183.25
2022-09-03T11:30:14.898Z,101180.81
2022-09-03T11:33:01.595Z,101173.44
2022-09-03T11:35:56.351Z,101177.50
2022-09-03T11:38:27.587Z,101163.16
2022-09-03T11:41:24.294Z,101165.72
2022-09-03T11:43:50.855Z,101161.81
2022-09-03T11:46:23.896Z,101158.72
2022-09-03T11:48:52.510Z,101161.13
2022-09-03T11:51:35.554Z,101155.53
2022-09-03T11:54:25.925Z,101154.66
2022-09-03T11:57:11.634Z,101163.94
2022-09-03T11:59:39.512Z,101164.09
2022-09-03T12:02:49.450Z,101166.56
2022-09-03T12:05:35.757Z,101154.94
2022-09-03T12:08:22.715Z,101164.44
2022-09-03T12:11:09.683Z,101165.03
2022-09-03T12:14:10.426Z,101169.78
2022-09-03T12:17:04.026Z,101169.28
2022-09-03T12:19:58.044Z,101166.66
2022-09-03T12:22:28.914Z,101164.50
2022-09-03T12:24:56.270Z,101164.50
2022-09-03T12:27:25.079Z,101167.66
2022-09-03T12:29:59.541Z,101168.91
2022-09-03T12:32:37.395Z,101162.81
2022-09-03T12:38:18.282Z,101169.88
2022-09-03T12:43:42.483Z,101178.78
2022-09-03T12:46:17.897Z,101178.06
2022-09-03T12:51:54.493Z,101173.41
2022-09-03T12:54:23.772Z,101169.22
2022-09-03T12:56:56.540Z,101163.78
2022-09-03T12:59:24.741Z,101154.00
2022-09-03T13:01:59.877Z,101169.13
2022-09-03T13:04:36.353Z,101161.28
2022-09-03T13:07:14.529Z,101165.72
2022-09-03T13:09:42.409Z,101168.81
2022-09-03T13:12:28.626Z,101162.66
2022-09-03T13:14:56.924Z,101167.75
2022-09-03T13:17:49.007Z,101162.53
2022-09-03T13:20:26.342Z,101164.88
2022-09-03T13:23:11.987Z,101162.84
2022-09-03T13:25:53.879Z,101167.38
2022-09-03T13:28:27.529Z,101166.13
2022-09-03T13:31:23.088Z,101161.22
2022-09-03T13:34:20.317Z,101159.63
2022-09-03T13:36:59.141Z,101157.34
2022-09-03T13:39:52.664Z,101160.16
2022-09-03T13:42:38.528Z,101155.59
2022-09-03T13:45:26.410Z,101157.78
2022-09-03T13:48:19.117Z,101154.44
2022-09-03T13:51:03.740Z,101159.38
2022-09-03T13:53:36.452Z,101142.94
2022-09-03T13:56:18.766Z,101148.22
2022-09-03T13:58:50.202Z,101139.78
2022-09-03T14:01:33.917Z,101139.88
2022-09-03T14:04:02.922Z,101130.78
2022-09-03T14:06:41.831Z,101143.84
2022-09-03T14:09:20.142Z,101148.53
2022-09-03T14:12:10.178Z,101137.78
2022-09-03T14:15:05.426Z,101144.16
2022-09-03T14:17:50.094Z,101152.09
2022-09-03T14:20:23.515Z,101151.47
2022-09-03T14:23:17.701Z,101141.81
2022-09-03T14:25:54.167Z,101145.78
2022-09-03T14:28:36.016Z,101145.94
2022-09-03T14:31:07.882Z,101148.31
2022-09-03T14:34:24.451Z,101140.50
2022-09-03T14:36:57.166Z,101142.91
2022-09-03T14:39:30.832Z,101142.69
2022-09-03T14:42:11.329Z,101141.53
2022-09-03T14:44:59.594Z,101146.56
2022-09-03T14:48:20.278Z,101140.69
2022-09-03T14:51:06.768Z,101145.47
2022-09-03T14:53:48.844Z,101147.25
2022-09-03T14:56:34.374Z,101147.50
2022-09-03T14:59:28.884Z,101145.69
2022-09-03T15:02:27.985Z,101147.56
2022-09-03T15:05:20.504Z,101155.47
2022-09-03T15:07:54.613Z,101148.94
2022-09-03T15:10:38.888Z,101148.09
2022-09-03T15:13:21.308Z,101150.88
2022-09-03T15:16:09.162Z,101140.09
2022-09-03T15:19:04.906Z,101145.41
2022-09-03T15:21:45.978Z,101152.75
2022-09-03T15:24:35.778Z,101150.47
2022-09-03T15:27:15.323Z,101145.09
2022-09-03T15:30:00.240Z,101141.84
2022-09-03T15:33:00.921Z,101139.97
2022-09-03T15:35:42.763Z,101139.84
2022-09-03T15:38:13.388Z,101150.78
2022-09-03T15:40:45.849Z,101156.09
2022-09-03T15:43:21.388Z,101155.69
2022-09-03T15:45:47.959Z,101153.38
2022-09-03T15:48:29.668Z,101156.03
2022-09-03T15:51:11.902Z,101152.34
2022-09-03T15:53:55.001Z,101153.19
2022-09-03T15:56:38.586Z,101148.41
2022-09-03T15:59:19.184Z,101146.41
2022-09-03T16:01:57.920Z,101151.22
2022-09-03T16:04:38.537Z,101148.06
2022-09-03T16:07:18.691Z,101151.44
2022-09-03T16:10:30.243Z,101152.44
2022-09-03T16:13:05.979Z,101146.47
2022-09-03T16:15:39.070Z,101159.03
2022-09-03T16:18:37.245Z,101154.47
2022-09-03T16:21:26.698Z,101151.03
2022-09-03T16:24:03.559Z,101151.78
2022-09-03T16:26:39.248Z,101150.63
2022-09-03T16:29:12.863Z,101153.53
2022-09-03T16:31:57.695Z,101159.59
2022-09-03T16:35:07.993Z,101156.97
2022-09-03T16:38:01.967Z,101153.00
2022-09-03T16:40:50.252Z,101154.19
2022-09-03T16:43:42.521Z,101155.59
2022-09-03T16:46:30.122Z,101155.78
2022-09-03T16:49:38.021Z,101151.16
2022-09-03T16:52:38.757Z,101161.50
2022-09-03T16:55:22.754Z,101158.03
2022-09-03T16:58:10.445Z,101154.75
2022-09-03T17:01:03.696Z,101146.03
2022-09-03T17:03:42.407Z,101161.66
2022-09-03T17:06:35.791Z,101162.34
2022-09-03T17:09:43.292Z,101160.00
2022-09-03T17:12:31.235Z,101160.66
2022-09-03T17:15:07.178Z,101164.97
2022-09-03T17:18:15.670Z,101163.44
2022-09-03T17:21:05.449Z,101169.97
2022-09-03T17:23:39.236Z,101170.06
2022-09-03T17:26:31.474Z,101170.91
2022-09-03T17:29:41.031Z,101163.66
2022-09-03T17:32:34.327Z,101173.28
2022-09-03T17:35:11.253Z,101170.38
2022-09-03T17:38:15.148Z,101171.91
2022-09-03T17:40:53.919Z,101179.28
2022-09-03T17:43:38.429Z,101192.25
2022-09-03T17:46:21.224Z,101187.09
2022-09-03T17:48:53.555Z,101182.41
2022-09-03T17:51:56.070Z,101191.94
2022-09-03T17:54:34.682Z,101193.81
2022-09-03T17:57:19.641Z,101200.28
2022-09-03T17:59:55.377Z,101199.44
2022-09-03T18:02:32.805Z,101205.91
2022-09-03T18:05:23.172Z,101212.63
2022-09-03T18:08:11.498Z,101218.63
2022-09-03T18:11:02.825Z,101209.38
2022-09-03T18:14:06.707Z,101220.63
2022-09-03T18:16:37.657Z,101223.59
2022-09-03T18:19:57.592Z,101223.63
2022-09-03T18:22:50.910Z,101234.56
2022-09-03T18:25:36.708Z,101233.25
2022-09-03T18:28:29.527Z,101239.97
2022-09-03T18:31:14.704Z,101245.69
2022-09-03T18:33:59.929Z,101251.63
2022-09-03T18:36:48.116Z,101253.78
2022-09-03T18:39:49.524Z,101267.63
2022-09-03T18:42:37.838Z,101263.72
2022-09-03T18:46:05.151Z,101263.53
2022-09-03T18:48:49.792Z,101261.41
2022-09-03T18:51:44.174Z,101266.81
2022-09-03T18:55:08.205Z,101273.47
2022-09-03T18:58:35.700Z,101270.84
2022-09-03T19:01:29.231Z,101271.59
2022-09-03T19:04:34.208Z,101279.22
2022-09-03T19:07:59.945Z,101274.59
2022-09-03T19:10:54.417Z,101278.03
2022-09-03T19:13:57.950Z,101288.09
2022-09-03T19:16:47.454Z,101287.47
2022-09-03T19:20:05.058Z,101299.16
2022-09-03T19:23:01.078Z,101298.66
2022-09-03T19:25:49.660Z,101299.63
2022-09-03T19:28:51.175Z,101298.63
2022-09-03T19:32:40.310Z,101301.56
2022-09-03T19:35:34.223Z,101303.53
2022-09-03T19:38:43.864Z,101304.78
2022-09-03T19:41:44.952Z,101305.56
2022-09-03T19:45:12.632Z,101310.75
2022-09-03T19:48:18.666Z,101308.69
2022-09-03T19:51:31.224Z,101316.22
2022-09-03T19:54:18.380Z,101307.31
2022-09-03T19:57:05.127Z,101314.88
2022-09-03T19:59:55.930Z,101312.13
2022-09-03T20:02:43.360Z,101318.63
2022-09-03T20:05:40.328Z,101322.06
2022-09-03T20:08:26.634Z,101325.50
2022-09-03T20:10:57.172Z,101324.66
2022-09-03T20:13:23.764Z,101327.25
2022-09-03T20:16:09.103Z,101327.25
2022-09-03T20:18:44.727Z,101333.50
2022-09-03T20:21:26.525Z,101323.88
2022-09-03T20:23:53.051Z,101327.97
2022-09-03T20:26:48.622Z,101327.00
2022-09-03T20:29:35.298Z,101333.75
2022-09-03T20:32:20.194Z,101332.09
2022-09-03T20:34:52.817Z,101331.16
2022-09-03T20:37:30.269Z,101331.09
2022-09-03T20:40:16.674Z,101334.63
2022-09-03T20:42:51.825Z,101335.31
2022-09-03T20:45:24.878Z,101336.97
2022-09-03T20:48:04.419Z,101336.69
2022-09-03T20:51:08.287Z,101342.25
2022-09-03T20:53:43.964Z,101337.88
2022-09-03T20:56:30.852Z,101344.09
2022-09-03T20:59:06.548Z,101349.28
2022-09-03T21:01:39.290Z,101354.41
2022-09-03T21:04:49.090Z,101359.84
2022-09-03T21:07:18.611Z,101355.06
2022-09-03T21:09:53.211Z,101356.28
2022-09-03T21:12:57.253Z,101362.47
2022-09-03T21:15:29.924Z,101362.97
2022-09-03T21:18:08.556Z,101358.97
2022-09-03T21:21:08.665Z,101363.75
2022-09-03T21:23:45.622Z,101362.38
2022-09-03T21:26:31.391Z,101357.94
2022-09-03T21:28:58.457Z,101365.19
2022-09-03T21:31:38.795Z,101363.13
2022-09-03T21:34:18.736Z,101363.59
2022-09-03T21:36:50.013Z,101367.44
2022-09-03T21:39:28.516Z,101367.56
2022-09-03T21:42:01.484Z,101363.91
2022-09-03T21:44:43.626Z,101372.25
2022-09-03T21:47:16.695Z,101365.56
2022-09-03T21:50:16.510Z,101367.91
2022-09-03T21:52:55.929Z,101360.47
2022-09-03T21:55:48.154Z,101362.09
2022-09-03T21:58:36.771Z,101369.69
2022-09-03T22:01:12.686Z,101377.34
2022-09-03T22:03:41.711Z,101375.94
2022-09-03T22:06:20.523Z,101370.00
2022-09-03T22:09:02.120Z,101377.22
2022-09-03T22:11:38.375Z,101385.97
2022-09-03T22:14:11.587Z,101396.63
2022-09-03T22:17:02.998Z,101389.13
2022-09-03T22:19:37.540Z,101384.69
2022-09-03T22:22:12.843Z,101387.72
2022-09-03T22:24:42.210Z,101393.81
2022-09-03T22:27:22.588Z,101392.75
2022-09-03T22:30:03.118Z,101396.56
2022-09-03T22:32:48.786Z,101395.84
2022-09-03T22:35:44.585Z,101396.28
2022-09-03T22:38:40.995Z,101398.94
2022-09-03T22:41:34.871Z,101400.50
2022-09-03T22:44:01.625Z,101398.59
2022-09-03T22:46:40.330Z,101390.00
2022-09-03T22:49:20.641Z,101392.66
2022-09-03T22:52:04.323Z,101397.56
2022-09-03T22:54:42.443Z,101399.50
2022-09-03T22:57:11.130Z,101408.56
2022-09-03T22:59:54.257Z,101411.25
2022-09-03T23:02:23.752Z,101414.66
2022-09-03T23:05:07.075Z,101421.47
2022-09-03T23:07:48.465Z,101419.22
2022-09-03T23:10:25.572Z,101418.47
2022-09-03T23:13:08.180Z,101411.72
2022-09-03T23:15:39.003Z,101421.53
2022-09-03T23:18:08.965Z,101420.78
2022-09-03T23:20:40.568Z,101418.56
2022-09-03T23:23:20.247Z,101423.06
2022-09-03T23:25:56.601Z,101420.09
2022-09-03T23:28:34.038Z,101425.72
2022-09-03T23:31:17.028Z,101434.81
2022-09-03T23:33:46.144Z,101431.41
2022-09-03T23:36:43.280Z,101421.25
2022-09-03T23:39:28.302Z,101429.19
2022-09-03T23:42:27.082Z,101431.44
2022-09-03T23:45:20.388Z,101429.94
2022-09-03T23:48:03.228Z,101423.13
2022-09-03T23:51:10.453Z,101429.19
2022-09-03T23:54:12.981Z,101435.22
2022-09-03T23:56:56.699Z,101435.19
2022-09-03T23:59:35.271Z,101436.69
